首页
METAR-TAF:

METAR-TAF

机场 :

格洛斯特, 英格兰

纬度: 51-54N, 经度: 002-10W, 海拔: 29米

当前天气观测

该预报发布于7小时和39分钟前的17:20 UTC
风速3节,风向北转西北
温度 32°C
湿度 43%
气压 1012 hPa
能见度10公里或以上
少量云层高于4800英尺, 塔状积云.

METAR: EGBJ 111720Z 34003KT 9999 FEW048TCU 32/18 Q1012

时间: 01:59 (00:59 UTC)

预报

该预报发布于10小时和53分钟前的14:06 UTC
预报有效从11日的 15点(UTC)到 11日的 19点(UTC)
风速3节,风向多变
能见度10公里或以上
散云层高于4000英尺
几率 30% :
短暂存在
从 11日的 15点(UTC)到 11日的 19点(UTC)
能見度: 4000
雷暴, 雨

TAF: EGBJ 111406Z 1115/1119 VRB03KT 9999 SCT040 PROB30 TEMPO 1115/1119 4000 TSRA

超过4000个机场的气象观测和天气预报(METAR&TAF报告)。

可查询的气象台以黄色和红色小点在地图上表示。

将鼠标移到小点上方,可查看气象台名称。

然后点击查看天气观测和预报。

如需切换地图:点击带黑十字的绿色按钮放大地图;点击带横线的绿色按钮缩小地图;或者点击绿色箭头查看邻近地区的地图。


METAR-TAF: